NMSU Main Campus

Jan. 22, 2020, 4:40 p.m.

  • imperial
Air Temperature RH Dewpoint Wind Chill Heat Index Wind Speed Wind Direction Precipitation Solar Radiation Soil Temperature
Date Time Max Mean Mean Total Total
US/Mountain F % F F F MPH MPH MPH deg. deg. in. MJ/m^2 F
2020-01-21 16:40 45.81 90.2 43.1 45.81 45.81 0.98 2.77 1.01 18.9 147.4 0.0 0.008 48.88
2020-01-21 16:45 45.81 89.2 42.81 45.81 45.81 1.52 2.77 1.32 22.4 157.8 0.0 0.006 48.88
2020-01-21 16:50 45.63 89.7 42.78 45.63 45.63 0.81 2.77 1.54 20.3 140.2 0.0 0.005 48.88
2020-01-21 16:55 45.68 90.3 43.0 45.68 45.68 0.0 2.06 0.76 13.1 135.6 0.0 0.004 48.88
2020-01-21 17:00 45.68 89.2 42.68 45.68 45.68 1.52 1.52 0.47 15.2 146.8 0.0 0.004 48.88
2020-01-21 17:05 45.81 91.0 43.33 45.81 45.81 0.0 2.24 1.23 9.4 142.4 0.0 0.005 48.9
2020-01-21 17:10 45.99 91.8 43.74 45.99 45.99 1.34 1.34 0.34 22.8 156.4 0.0 0.004 48.9
2020-01-21 17:15 45.81 92.0 43.61 45.81 45.81 0.81 3.49 1.77 35.9 178.6 0.0 0.003 48.9
2020-01-21 17:20 45.73 91.8 43.49 45.73 45.73 0.0 1.7 0.58 30.9 129.2 0.0 0.002 48.9
2020-01-21 17:25 45.81 91.5 43.47 45.81 45.81 1.7 2.59 1.19 27.5 115.8 0.0 0.001 48.9
2020-01-21 17:30 45.68 91.7 43.4 45.68 45.68 0.81 2.77 1.79 17.7 123.3 0.0 0.001 48.88
2020-01-21 17:35 45.81 90.8 43.27 45.81 45.81 2.42 3.49 1.74 19.6 115.8 0.0 0.0 48.88
2020-01-21 17:40 45.73 90.4 43.08 45.73 45.73 2.42 3.49 2.86 12.4 106.6 0.0 0.0 48.9
2020-01-21 17:45 45.73 89.6 42.85 44.36 45.73 3.49 4.38 3.13 11.6 107.7 0.0 0.0 48.88
2020-01-21 17:50 45.81 89.5 42.89 44.78 45.81 3.13 4.21 2.73 15.6 109.5 0.0 0.0 48.88
2020-01-21 17:55 45.99 89.5 43.07 45.99 45.99 2.59 4.38 2.75 14.1 103.4 0.0 0.0 48.88
2020-01-21 18:00 46.11 90.2 43.4 46.11 46.11 2.06 3.31 2.44 17.6 102.8 0.0 0.0 48.88
2020-01-21 18:05 46.11 88.1 42.79 46.11 46.11 1.88 3.49 2.68 16.6 118.0 0.0 0.0 48.87
2020-01-21 18:10 46.11 88.1 42.79 46.11 46.11 0.98 2.59 1.48 34.3 130.1 0.0 0.0 48.87
2020-01-21 18:15 46.17 89.5 43.25 46.17 46.17 2.06 2.59 1.81 25.6 170.0 0.0 0.0 48.87
2020-01-21 18:20 46.04 89.7 43.18 46.04 46.04 1.88 2.24 1.36 30.6 136.1 0.0 0.0 48.87
2020-01-21 18:25 46.17 88.9 43.07 46.17 46.17 2.06 2.24 1.59 28.9 71.7 0.0 0.0 48.85
2020-01-21 18:30 46.24 89.3 43.26 46.24 46.24 2.59 4.21 2.55 13.1 114.5 0.0 0.0 48.83
2020-01-21 18:35 46.17 89.6 43.28 46.17 46.17 2.24 3.85 2.64 19.1 130.4 0.0 0.0 48.83
2020-01-21 18:40 46.11 89.4 43.17 46.11 46.11 2.06 2.42 1.48 60.3 158.6 0.0 0.0 48.81
2020-01-21 18:45 46.11 90.0 43.34 46.11 46.11 0.81 2.06 1.41 51.6 87.1 0.0 0.0 48.81
2020-01-21 18:50 45.86 89.5 42.95 45.86 45.86 2.24 2.24 1.28 36.7 120.4 0.0 0.0 48.79
2020-01-21 18:55 45.93 89.4 42.99 45.93 45.93 1.7 2.95 2.33 22.1 91.5 0.0 0.0 48.79
2020-01-21 19:00 46.04 89.7 43.18 46.04 46.04 0.81 2.59 1.61 23.7 163.4 0.0 0.0 48.79
2020-01-21 19:05 45.81 90.4 43.16 45.81 45.81 1.52 1.52 0.96 28.5 116.0 0.0 0.0 48.76
2020-01-21 19:10 45.5 90.8 42.97 45.5 45.5 0.0 0.98 0.11 7.7 156.3 0.0 0.0 48.74
2020-01-21 19:15 45.27 91.7 42.99 45.27 45.27 0.0 0.81 0.02 0.0 249.9 0.0 0.0 48.74
2020-01-21 19:20 45.5 92.1 43.34 45.5 45.5 0.0 0.0 0.0 0.0 0.0 0.0 0.0 48.74
2020-01-21 19:25 45.07 91.9 42.86 45.07 45.07 0.0 1.52 0.49 28.6 140.9 0.0 0.0 48.72
2020-01-21 19:30 44.96 91.9 42.75 44.96 44.96 0.0 1.88 0.74 9.9 194.6 0.0 0.0 48.7
2020-01-21 19:35 44.83 93.0 42.93 44.83 44.83 0.0 1.88 0.54 8.7 214.5 0.0 0.0 48.69
2020-01-21 19:40 44.47 93.1 42.6 44.47 44.47 0.0 0.0 0.0 0.0 0.0 0.0 0.0 48.67
2020-01-21 19:45 44.53 92.9 42.6 44.53 44.53 0.0 0.0 0.0 0.0 0.0 0.0 0.0 48.65
2020-01-21 19:50 44.04 94.8 42.65 44.04 44.04 0.0 1.88 0.43 11.9 122.3 0.0 0.0 48.63
2020-01-21 19:55 43.99 94.6 42.54 43.99 43.99 0.0 0.0 0.0 0.0 0.0 0.0 0.0 48.61
2020-01-21 20:00 43.81 95.6 42.63 43.81 43.81 0.0 1.88 0.49 11.9 114.9 0.0 0.0 48.6
2020-01-21 20:05 43.81 96.0 42.74 43.81 43.81 0.0 1.88 0.4 5.4 146.3 0.0 0.0 48.6
2020-01-21 20:10 44.11 95.0 42.77 44.11 44.11 0.0 2.59 0.89 14.1 145.3 0.0 0.0 48.58
2020-01-21 20:15 43.81 94.3 42.28 43.81 43.81 1.16 1.16 0.07 0.2 200.8 0.0 0.0 48.54
2020-01-21 20:20 43.39 95.3 42.14 43.39 43.39 0.0 1.34 0.43 5.8 209.9 0.0 0.0 48.52
2020-01-21 20:25 43.14 96.0 42.08 43.14 43.14 0.0 0.0 0.0 0.0 0.0 0.0 0.0 48.51
2020-01-21 20:30 43.09 96.7 42.21 43.09 43.09 1.7 1.88 0.16 1.3 111.4 0.0 0.0 48.47
2020-01-21 20:35 42.91 97.8 42.33 42.91 42.91 0.81 1.88 0.81 4.4 115.7 0.0 0.0 48.43
2020-01-21 20:40 43.34 97.8 42.76 41.98 43.34 3.13 3.85 2.62 9.8 102.9 0.0 0.0 48.42
2020-01-21 20:45 44.06 96.0 42.99 44.06 44.06 1.34 4.21 2.55 24.9 128.8 0.0 0.0 48.38
2020-01-21 20:50 44.06 95.0 42.72 44.06 44.06 1.7 2.59 1.41 44.5 166.8 0.0 0.0 48.34
2020-01-21 20:55 44.19 95.2 42.9 44.19 44.19 2.77 2.77 0.54 42.4 210.6 0.0 0.0 48.31
2020-01-21 21:00 44.37 94.4 42.86 44.37 44.37 0.0 4.03 1.88 35.3 173.5 0.0 0.0 48.29
2020-01-21 21:05 43.95 94.7 42.53 43.95 43.95 0.0 2.42 0.87 13.9 195.0 0.0 0.0 48.25
2020-01-21 21:10 43.83 94.1 42.24 43.83 43.83 0.98 1.88 0.65 39.1 124.8 0.0 0.0 48.22
2020-01-21 21:15 43.52 95.2 42.24 43.52 43.52 0.0 0.81 0.02 0.0 235.2 0.0 0.0 48.18
2020-01-21 21:20 43.03 96.0 41.97 43.03 43.03 1.34 2.77 0.76 4.2 199.4 0.0 0.0 48.15
2020-01-21 21:25 43.03 96.9 42.21 43.03 43.03 0.0 1.52 0.22 6.0 193.5 0.0 0.0 48.11
2020-01-21 21:30 43.03 96.9 42.21 43.03 43.03 0.0 0.0 0.0 0.0 0.0 0.0 0.0 48.07
2020-01-21 21:35 42.8 98.1 42.3 42.8 42.8 2.59 2.95 0.74 48.1 355.5 0.0 0.0 48.04
2020-01-21 21:40 42.98 96.7 42.11 42.98 42.98 0.0 2.59 0.63 51.7 165.6 0.0 0.0 48.02
2020-01-21 21:45 42.98 95.0 41.65 42.98 42.98 1.34 2.77 0.78 11.2 120.9 0.0 0.0 47.98
2020-01-21 21:50 42.6 94.9 41.24 42.6 42.6 0.0 1.7 0.43 2.4 157.3 0.0 0.0 47.95
2020-01-21 21:55 42.42 95.9 41.34 42.42 42.42 0.0 2.24 0.58 22.9 77.8 0.0 0.0 47.91
2020-01-21 22:00 42.42 97.0 41.63 42.42 42.42 2.24 2.24 0.29 1.9 110.9 0.0 0.0 47.88
2020-01-21 22:05 42.12 96.2 41.11 42.12 42.12 0.0 3.13 0.89 9.3 112.4 0.0 0.0 47.84
2020-01-21 22:10 42.06 97.6 41.43 42.06 42.06 0.0 2.42 0.85 22.9 262.6 0.0 0.0 47.8
2020-01-21 22:15 42.55 96.5 41.62 42.55 42.55 1.88 1.88 1.12 7.6 188.9 0.0 0.0 47.77
2020-01-21 22:20 42.6 95.5 41.41 42.6 42.6 1.34 1.88 0.49 6.9 192.6 0.0 0.0 47.73
2020-01-21 22:25 42.19 94.1 40.61 42.19 42.19 0.0 2.77 0.87 12.6 210.3 0.0 0.0 47.7
2020-01-21 22:30 41.63 95.9 40.55 41.63 41.63 0.0 1.52 0.29 46.3 321.8 0.0 0.0 47.66
2020-01-21 22:35 41.52 96.6 40.63 41.52 41.52 0.0 0.0 0.0 0.0 0.0 0.0 0.0 47.62
2020-01-21 22:40 41.52 98.1 41.03 41.52 41.52 0.0 0.0 0.0 0.0 0.0 0.0 0.0 47.59
2020-01-21 22:45 42.24 97.5 41.58 42.24 42.24 0.0 2.06 0.49 3.9 139.4 0.0 0.0 47.55
2020-01-21 22:50 42.3 96.1 41.26 42.3 42.3 1.88 2.06 0.51 4.2 174.6 0.0 0.0 47.52
2020-01-21 22:55 42.06 94.7 40.65 42.06 42.06 0.0 2.42 0.74 7.7 217.2 0.0 0.0 47.46
2020-01-21 23:00 41.45 95.3 40.21 41.45 41.45 0.0 0.0 0.0 0.0 0.0 0.0 0.0 47.41
2020-01-21 23:05 41.27 97.3 40.56 41.27 41.27 0.0 0.0 0.0 0.0 0.0 0.0 0.0 47.39
2020-01-21 23:10 40.96 96.8 40.12 40.96 40.96 0.0 0.0 0.0 0.0 0.0 0.0 0.0 47.34
2020-01-21 23:15 40.84 98.0 40.32 40.84 40.84 0.0 0.0 0.0 0.0 0.0 0.0 0.0 47.3
2020-01-21 23:20 40.78 98.6 40.42 40.78 40.78 0.0 0.0 0.0 0.0 0.0 0.0 0.0 47.28
2020-01-21 23:25 40.91 98.7 40.57 40.91 40.91 0.0 0.0 0.0 0.0 0.0 0.0 0.0 47.25
2020-01-21 23:30 40.6 98.7 40.27 40.6 40.6 0.0 0.0 0.0 0.0 0.0 0.0 0.0 47.21
2020-01-21 23:35 40.55 98.3 40.11 40.55 40.55 0.0 0.0 0.0 0.0 0.0 0.0 0.0 47.17
2020-01-21 23:40 40.37 98.8 40.06 37.86 40.37 3.85 3.85 0.4 1.4 210.3 0.0 0.0 47.12
2020-01-21 23:45 39.7 98.6 39.34 39.7 39.7 0.0 4.03 1.88 13.9 203.4 0.0 0.0 47.1
2020-01-21 23:50 40.06 99.6 39.96 40.06 40.06 2.24 2.77 1.81 19.8 234.9 0.0 0.0 47.05
2020-01-21 23:55 40.12 99.5 39.99 40.12 40.12 0.0 2.06 1.05 18.9 201.6 0.0 0.0 46.99
2020-01-22 00:00 39.58 98.8 39.27 39.58 39.58 0.0 2.06 0.92 8.8 107.4 0.0 0.0 46.96
2020-01-22 00:05 39.58 99.5 39.45 39.58 39.58 0.0 1.52 0.22 8.9 144.8 0.0 0.0 46.92
2020-01-22 00:10 39.63 99.7 39.55 39.63 39.63 0.0 0.81 0.02 0.0 183.5 0.0 0.0 46.89
2020-01-22 00:15 39.52 99.9 39.5 39.52 39.52 0.0 1.88 0.38 3.1 95.0 0.0 0.0 46.85
2020-01-22 00:20 39.27 100.0 39.27 39.27 39.27 0.0 0.0 0.0 0.0 0.0 0.0 0.0 46.8
2020-01-22 00:25 39.65 100.0 39.65 39.65 39.65 1.16 2.42 1.05 38.4 125.8 0.0 0.0 46.76
2020-01-22 00:30 39.58 100.0 39.58 39.58 39.58 2.95 3.67 2.39 76.1 211.3 0.0 0.0 46.72
2020-01-22 00:35 39.88 100.0 39.88 39.88 39.88 2.24 3.13 2.1 32.6 134.2 0.0 0.0 46.69
2020-01-22 00:40 40.01 99.6 39.91 40.01 40.01 1.52 2.77 1.43 45.8 195.9 0.0 0.0 46.63
2020-01-22 00:45 39.81 99.5 39.68 39.81 39.81 0.0 1.7 0.65 7.4 236.9 0.0 0.0 46.62
2020-01-22 00:50 39.7 99.5 39.58 39.7 39.7 2.06 2.06 1.12 13.4 216.4 0.0 0.0 46.58
2020-01-22 00:55 39.27 99.6 39.17 39.27 39.27 0.0 2.59 0.72 9.9 206.0 0.0 0.0 46.53
2020-01-22 01:00 39.27 99.8 39.22 39.27 39.27 1.7 2.24 0.96 8.9 142.6 0.0 0.0 46.51
2020-01-22 01:05 39.34 99.8 39.29 39.34 39.34 0.0 2.24 1.54 8.2 140.4 0.0 0.0 46.45
2020-01-22 01:10 39.27 99.4 39.12 39.27 39.27 1.34 2.95 1.81 17.4 186.2 0.0 0.0 46.44
2020-01-22 01:15 39.04 99.7 38.96 39.04 39.04 1.88 2.42 1.72 47.6 198.6 0.0 0.0 46.4
2020-01-22 01:20 38.79 99.8 38.73 38.79 38.79 0.0 2.06 0.43 31.7 162.6 0.0 0.0 46.35
2020-01-22 01:25 38.79 100.0 38.79 38.79 38.79 1.52 2.42 0.98 10.6 194.9 0.0 0.0 46.31
2020-01-22 01:30 38.97 100.0 38.97 38.97 38.97 0.0 1.7 0.27 4.0 176.4 0.0 0.0 46.27
2020-01-22 01:35 38.79 100.0 38.79 38.79 38.79 0.0 2.77 1.25 40.0 197.9 0.0 0.0 46.24
2020-01-22 01:40 39.02 100.0 39.02 39.02 39.02 2.06 2.42 1.12 28.4 187.6 0.0 0.0 46.2
2020-01-22 01:45 39.4 100.0 39.4 39.4 39.4 0.0 2.42 1.48 7.4 124.0 0.0 0.0 46.18
2020-01-22 01:50 39.15 99.6 39.04 39.15 39.15 0.81 1.16 0.16 36.4 121.0 0.0 0.0 46.15
2020-01-22 01:55 39.22 99.8 39.17 39.22 39.22 1.16 1.16 0.07 0.3 208.9 0.0 0.0 46.11
2020-01-22 02:00 39.15 99.4 38.99 39.15 39.15 0.0 2.24 0.76 5.5 203.5 0.0 0.0 46.08
2020-01-22 02:05 39.34 99.6 39.24 39.34 39.34 0.0 0.0 0.0 0.0 0.0 0.0 0.0 46.04
2020-01-22 02:10 39.58 99.5 39.45 39.58 39.58 0.0 0.0 0.0 0.0 0.0 0.0 0.0 46.0
2020-01-22 02:15 39.45 99.6 39.35 39.45 39.45 0.0 0.0 0.0 0.0 0.0 0.0 0.0 45.99
2020-01-22 02:20 39.81 100.0 39.81 39.81 39.81 0.81 0.81 0.02 0.0 184.9 0.0 0.0 45.93
2020-01-22 02:25 39.99 99.1 39.76 39.99 39.99 0.0 3.31 1.66 17.2 180.7 0.0 0.0 45.91
2020-01-22 02:30 40.12 98.7 39.78 40.12 40.12 2.59 2.77 1.54 10.9 201.3 0.0 0.0 45.88
2020-01-22 02:35 40.19 98.5 39.8 40.19 40.19 2.95 3.13 2.39 11.9 191.6 0.0 0.0 45.84
2020-01-22 02:40 39.7 97.5 39.05 39.7 39.7 0.0 3.13 1.95 14.7 198.1 0.0 0.0 45.82
2020-01-22 02:45 39.76 97.6 39.13 39.76 39.76 0.0 1.34 0.27 20.0 203.9 0.0 0.0 45.81
2020-01-22 02:50 39.45 98.3 39.01 39.45 39.45 0.98 1.16 0.18 22.8 122.9 0.0 0.0 45.75
2020-01-22 02:55 39.4 98.8 39.09 39.4 39.4 0.81 0.98 0.2 8.1 161.0 0.0 0.0 45.73
2020-01-22 03:00 41.47 100.0 41.47 41.47 41.47 1.34 3.13 2.01 27.6 80.5 0.0 0.0 45.72
2020-01-22 03:05 42.13 97.8 41.56 42.13 42.13 0.0 1.7 0.31 6.1 91.4 0.0 0.0 45.7
2020-01-22 03:10 42.87 95.1 41.57 42.87 42.87 0.0 3.13 1.45 33.8 169.2 0.0 0.0 45.66
2020-01-22 03:15 43.11 91.4 40.77 41.71 43.11 3.13 3.67 1.1 50.1 183.8 0.0 0.0 45.64
2020-01-22 03:20 42.19 93.6 40.48 42.19 42.19 1.34 2.59 1.19 25.7 236.5 0.0 0.0 45.63
2020-01-22 03:25 42.26 93.7 40.57 42.26 42.26 0.81 2.24 1.21 16.0 153.9 0.0 0.0 45.59
2020-01-22 03:30 42.01 94.7 40.6 42.01 42.01 2.42 3.31 1.86 51.8 311.9 0.0 0.0 45.55
2020-01-22 03:35 42.13 95.3 40.89 42.13 42.13 2.06 2.95 1.45 53.6 166.7 0.0 0.0 45.55
2020-01-22 03:40 41.88 94.4 40.39 41.88 41.88 1.7 2.77 1.28 26.5 183.5 0.0 0.0 45.52
2020-01-22 03:45 41.88 94.5 40.42 41.88 41.88 0.81 1.52 0.51 15.1 160.4 0.0 0.0 45.5
2020-01-22 03:50 41.65 94.5 40.19 41.65 41.65 0.0 1.52 0.38 21.9 251.2 0.0 0.0 45.48
2020-01-22 03:55 41.45 95.3 40.21 41.45 41.45 0.0 2.42 0.69 14.9 119.2 0.0 0.0 45.45
2020-01-22 04:00 41.88 97.8 41.31 41.88 41.88 2.59 3.85 1.36 51.6 165.7 0.0 0.0 45.43
2020-01-22 04:05 42.01 94.7 40.6 42.01 42.01 0.81 2.24 0.78 54.7 102.2 0.0 0.0 45.41
2020-01-22 04:10 41.94 96.2 40.93 41.94 41.94 0.0 2.24 1.16 24.3 69.7 0.0 0.0 45.37
2020-01-22 04:15 42.85 96.6 41.95 42.85 42.85 2.06 4.21 2.33 44.7 330.8 0.0 0.0 45.36
2020-01-22 04:20 43.57 94.5 42.1 43.57 43.57 0.0 1.88 1.14 65.4 309.7 0.0 0.0 45.34
2020-01-22 04:25 44.19 93.3 42.37 44.19 44.19 1.34 2.42 1.86 8.9 35.3 0.0 0.0 45.32
2020-01-22 04:30 44.44 91.5 42.12 44.44 44.44 0.0 2.59 1.32 55.7 2.5 0.0 0.0 45.28
2020-01-22 04:35 44.44 92.1 42.29 44.44 44.44 0.0 0.81 0.04 0.6 63.0 0.0 0.0 45.28
2020-01-22 04:40 44.26 93.8 42.59 44.26 44.26 2.59 2.59 0.78 6.2 64.9 0.0 0.0 45.25
2020-01-22 04:45 45.16 90.9 42.66 45.16 45.16 0.0 2.24 0.36 7.7 64.0 0.0 0.0 45.23
2020-01-22 04:50 44.44 91.2 42.03 44.44 44.44 2.24 2.95 1.74 34.5 169.2 0.0 0.0 45.21
2020-01-22 04:55 43.88 92.8 41.93 43.88 43.88 2.42 2.42 1.1 16.8 251.0 0.0 0.0 45.19
2020-01-22 05:00 44.98 94.9 43.6 44.98 44.98 2.42 7.96 3.36 79.7 215.2 0.0 0.0 45.18
2020-01-22 05:05 45.82 90.4 43.17 43.86 45.82 4.21 7.43 4.74 33.4 296.5 0.0 0.0 45.18
2020-01-22 05:10 45.77 90.9 43.26 43.8 45.77 4.21 4.92 3.18 27.4 250.1 0.0 0.0 45.16
2020-01-22 05:15 45.36 90.3 42.68 45.36 45.36 0.0 3.49 1.59 14.7 202.3 0.0 0.0 45.14
2020-01-22 05:20 45.41 92.4 43.34 45.41 45.41 1.7 5.82 2.01 34.4 166.5 0.0 0.0 45.12
2020-01-22 05:25 45.54 91.5 43.2 45.54 45.54 2.24 2.95 1.61 50.1 175.0 0.0 0.0 45.12
2020-01-22 05:30 45.36 90.9 42.85 45.36 45.36 0.98 2.77 2.01 22.4 109.7 0.0 0.0 45.1
2020-01-22 05:35 45.1 93.4 43.31 45.1 45.1 0.81 2.95 1.63 37.3 115.4 0.0 0.0 45.09
2020-01-22 05:40 45.46 92.3 43.36 42.35 45.46 5.82 5.82 2.01 35.0 167.5 0.0 0.0 45.09
2020-01-22 05:45 45.46 91.6 43.16 45.46 45.46 2.42 6.71 4.16 24.7 154.5 0.0 0.0 45.07
2020-01-22 05:50 45.59 91.1 43.14 44.53 45.59 3.13 6.17 3.06 45.6 165.7 0.0 0.0 45.07
2020-01-22 05:55 45.16 91.4 42.8 45.16 45.16 1.34 4.74 2.86 19.0 132.3 0.0 0.0 45.05
2020-01-22 06:00 45.1 93.3 43.29 45.1 45.1 1.34 5.46 2.59 19.3 127.4 0.0 0.0 45.03
2020-01-22 06:05 45.41 93.9 43.76 45.41 45.41 0.0 4.03 1.43 26.6 116.2 0.0 0.0 45.03
2020-01-22 06:10 45.52 92.6 43.5 45.52 45.52 1.7 2.59 1.3 25.3 60.7 0.0 0.0 45.01
2020-01-22 06:15 45.64 92.6 43.62 45.64 45.64 0.81 4.74 0.81 27.1 138.8 0.0 0.0 45.01
2020-01-22 06:20 45.88 92.5 43.83 44.36 45.88 3.67 4.03 2.71 16.9 98.2 0.0 0.0 45.0
2020-01-22 06:25 46.36 90.9 43.85 44.1 46.36 4.74 10.27 5.46 17.4 96.8 0.0 0.0 45.0
2020-01-22 06:30 46.62 90.1 43.87 46.62 46.62 1.52 7.25 3.85 59.2 93.1 0.0 0.0 44.98
2020-01-22 06:35 46.67 90.6 44.07 46.67 46.67 0.0 4.21 2.39 22.6 263.3 0.0 0.0 45.0
2020-01-22 06:40 46.67 90.5 44.04 46.67 46.67 2.77 6.53 3.24 77.1 199.7 0.0 0.0 44.96
2020-01-22 06:45 46.31 90.5 43.68 46.31 46.31 0.0 2.59 1.12 35.8 199.2 0.0 0.0 44.96
2020-01-22 06:50 46.31 91.4 43.94 46.31 46.31 1.88 3.31 1.74 49.5 357.8 0.0 0.0 44.96
2020-01-22 06:55 46.31 90.7 43.74 43.05 46.31 6.35 6.35 2.91 47.5 8.7 0.0 0.0 44.96
2020-01-22 07:00 46.67 90.1 43.92 46.67 46.67 1.34 7.25 3.53 55.2 354.6 0.0 0.0 44.96
2020-01-22 07:05 46.54 90.3 43.86 46.54 46.54 1.34 5.64 2.95 41.3 269.5 0.0 0.001 44.96
2020-01-22 07:10 46.6 90.7 44.03 46.6 46.6 2.77 6.89 3.13 43.4 244.9 0.0 0.002 44.96
2020-01-22 07:15 46.47 90.9 43.96 46.47 46.47 2.59 5.1 2.89 35.4 211.0 0.0 0.003 44.94
2020-01-22 07:20 46.18 91.0 43.7 44.01 46.18 4.56 4.92 2.13 62.8 221.5 0.0 0.004 44.96
2020-01-22 07:25 46.29 90.9 43.78 44.27 46.29 4.38 5.1 2.89 71.5 314.2 0.0 0.005 44.96
2020-01-22 07:30 46.11 90.3 43.43 46.11 46.11 1.88 3.85 2.62 42.8 345.6 0.0 0.009 44.96
2020-01-22 07:35 46.31 90.7 43.74 46.31 46.31 0.0 2.42 1.63 15.8 35.8 0.0 0.016 44.96
2020-01-22 07:40 46.54 88.8 43.42 46.54 46.54 1.52 2.42 1.05 47.9 232.3 0.0 0.022 44.96
2020-01-22 07:45 47.39 86.7 43.63 47.39 47.39 0.81 1.52 0.22 45.2 162.7 0.0 0.024 44.96
2020-01-22 07:50 47.59 85.7 43.52 47.59 47.59 0.0 0.0 0.0 0.0 0.0 0.0 0.029 44.96
2020-01-22 07:55 48.31 83.3 43.48 48.31 48.31 0.0 1.88 0.4 25.3 36.7 0.0 0.036 44.96
2020-01-22 08:00 48.61 82.6 43.56 48.61 48.61 2.77 2.77 0.94 9.2 14.8 0.0 0.032 44.96
2020-01-22 08:05 48.24 83.1 43.35 48.24 48.24 1.52 3.67 2.64 15.1 23.6 0.0 0.048 44.96
2020-01-22 08:10 48.6 82.9 43.64 48.6 48.6 1.88 2.95 2.28 19.1 24.4 0.0 0.063 44.96
2020-01-22 08:15 48.9 81.3 43.43 48.9 48.9 2.42 3.49 2.42 20.8 340.9 0.0 0.071 44.96
2020-01-22 08:20 49.03 79.97 43.12 48.43 49.03 3.13 4.56 3.29 26.4 326.8 0.0 0.076 44.96
2020-01-22 08:25 49.03 80.9 43.42 47.7 49.03 4.03 6.53 3.8 27.8 295.8 0.0 0.052 44.94
2020-01-22 08:30 48.72 81.5 43.31 47.1 48.72 4.38 4.56 3.56 17.7 324.6 0.0 0.041 44.94
2020-01-22 08:35 49.15 80.2 43.32 48.42 49.15 3.31 4.21 2.46 32.8 288.3 0.0 0.051 44.94
2020-01-22 08:40 49.26 78.75 42.94 47.85 49.26 4.21 6.71 3.74 33.2 284.3 0.0 0.061 44.96
2020-01-22 08:45 50.0 82.1 44.75 50.0 50.0 4.74 7.43 4.54 25.8 280.1 0.0 0.083 44.98
2020-01-22 08:50 50.41 75.43 42.94 50.41 50.41 6.71 7.61 4.18 16.9 248.6 0.0 0.09 44.96
2020-01-22 08:55 50.47 77.46 43.68 50.47 50.47 1.7 7.07 4.32 21.0 268.9 0.0 0.087 44.98
2020-01-22 09:00 50.85 76.34 43.67 50.85 50.85 5.28 7.07 4.65 23.9 284.2 0.0 0.107 45.01
2020-01-22 09:05 51.26 72.32 42.66 51.26 51.26 4.56 6.53 4.83 25.4 274.9 0.0 0.114 45.03
2020-01-22 09:10 51.21 76.17 43.96 51.21 51.21 3.85 7.07 4.68 21.3 286.1 0.0 0.084 45.07
2020-01-22 09:15 50.83 72.93 42.46 50.83 50.83 5.1 6.0 3.91 30.1 269.5 0.0 0.025 45.1
2020-01-22 09:20 50.83 76.13 43.58 50.83 50.83 4.56 6.35 4.81 20.6 260.1 0.0 0.095 45.12
2020-01-22 09:25 51.26 70.66 42.05 51.26 51.26 4.38 6.71 4.27 28.1 269.2 0.0 0.113 45.16
2020-01-22 09:30 51.98 71.67 43.11 51.98 51.98 3.13 4.92 3.11 31.6 273.7 0.0 0.116 45.19
2020-01-22 09:35 52.47 70.11 43.01 52.47 52.47 6.17 6.53 2.51 38.9 267.9 0.0 0.12 45.25
2020-01-22 09:40 52.65 67.95 42.36 52.65 52.65 1.88 6.89 3.04 28.2 273.5 0.0 0.123 45.3
2020-01-22 09:45 53.19 67.64 42.76 53.19 53.19 6.53 7.61 3.91 25.9 308.2 0.0 0.127 45.36
2020-01-22 09:50 52.88 67.27 42.33 52.88 52.88 4.92 7.07 5.3 30.5 286.5 0.0 0.131 45.41
2020-01-22 09:55 53.29 67.23 42.71 53.29 53.29 6.17 9.91 6.15 24.1 297.6 0.0 0.134 45.46
2020-01-22 10:00 53.78 64.53 42.1 53.78 53.78 4.38 9.57 6.98 21.8 280.6 0.0 0.138 45.5
2020-01-22 10:05 54.34 58.05 39.89 54.34 54.34 9.04 9.04 5.68 23.4 257.5 0.0 0.142 45.57
2020-01-22 10:10 54.81 58.44 40.51 54.81 54.81 5.64 8.12 5.19 25.9 265.9 0.0 0.145 45.64
2020-01-22 10:15 54.93 58.54 40.67 54.93 54.93 9.22 9.22 6.29 23.3 256.7 0.0 0.148 45.73
2020-01-22 10:20 54.99 56.15 39.64 54.99 54.99 6.89 12.77 8.61 27.2 276.9 0.0 0.152 45.81
2020-01-22 10:25 55.11 55.94 39.67 55.11 55.11 7.78 12.95 8.19 16.7 250.8 0.0 0.155 45.88
2020-01-22 10:30 55.6 54.83 39.6 55.6 55.6 6.71 10.27 6.78 23.5 264.2 0.0 0.158 45.99
2020-01-22 10:35 55.42 54.36 39.22 55.42 55.42 8.12 11.16 8.57 17.1 251.8 0.0 0.162 46.06
2020-01-22 10:40 55.96 52.3 38.73 55.96 55.96 12.95 12.95 8.03 30.6 255.2 0.0 0.166 46.15
2020-01-22 10:45 55.42 54.42 39.24 55.42 55.42 6.35 14.2 9.42 13.6 249.9 0.0 0.166 46.26
2020-01-22 10:50 56.5 52.94 39.54 56.5 56.5 8.86 14.2 7.87 31.2 262.1 0.0 0.168 46.36
2020-01-22 10:55 56.5 50.44 38.3 56.5 56.5 11.34 11.52 7.83 20.1 261.0 0.0 0.17 46.45
2020-01-22 11:00 56.5 52.16 39.16 56.5 56.5 4.56 11.34 7.85 27.0 269.8 0.0 0.172 46.53
2020-01-22 11:05 56.44 51.18 38.62 56.44 56.44 9.22 10.8 7.67 16.8 253.7 0.0 0.174 46.65
2020-01-22 11:10 56.32 52.05 38.94 56.32 56.32 10.09 12.77 9.22 16.5 244.3 0.0 0.176 46.76
2020-01-22 11:15 57.52 49.55 38.79 57.52 57.52 8.12 9.57 6.85 19.7 255.3 0.0 0.178 46.87
2020-01-22 11:20 57.09 48.61 37.91 57.09 57.09 9.4 11.88 8.88 18.4 252.4 0.0 0.181 46.96
2020-01-22 11:25 57.7 51.44 39.92 57.7 57.7 4.92 11.34 7.63 30.9 276.9 0.0 0.187 47.08
2020-01-22 11:30 58.14 49.55 39.36 58.14 58.14 8.86 11.16 6.93 27.3 274.5 0.0 0.195 47.16
2020-01-22 11:35 57.83 47.53 38.01 57.83 57.83 10.63 12.24 8.43 30.6 285.1 0.0 0.19 47.3
2020-01-22 11:40 57.34 50.9 39.31 57.34 57.34 4.92 12.06 8.19 31.4 269.8 0.0 0.116 47.41
2020-01-22 11:45 58.6 46.58 38.2 58.6 58.6 4.38 12.59 6.55 26.4 282.1 0.0 0.198 47.52
2020-01-22 11:50 58.37 47.05 38.24 58.37 58.37 7.61 12.42 7.31 19.1 256.7 0.0 0.214 47.62
2020-01-22 11:55 58.55 45.94 37.8 58.55 58.55 7.78 10.27 7.67 22.3 251.9 0.0 0.203 47.73
2020-01-22 12:00 58.12 46.41 37.66 58.12 58.12 4.38 10.63 6.64 29.9 261.9 0.0 0.194 47.86
2020-01-22 12:05 57.83 47.73 38.12 57.83 57.83 7.78 12.24 6.71 28.4 259.3 0.0 0.192 47.97
2020-01-22 12:10 58.32 48.07 38.74 58.32 58.32 4.92 10.98 7.31 15.2 240.4 0.0 0.196 48.07
2020-01-22 12:15 58.32 46.65 37.98 58.32 58.32 6.71 11.88 7.09 22.9 266.5 0.0 0.194 48.18
2020-01-22 12:20 57.94 45.5 37.0 57.94 57.94 6.17 9.73 7.34 20.4 246.6 0.0 0.119 48.29
2020-01-22 12:25 57.7 45.33 36.69 57.7 57.7 9.57 9.57 5.97 22.3 253.9 0.0 0.164 48.42
2020-01-22 12:30 58.91 43.34 36.65 58.91 58.91 8.48 11.16 7.07 26.9 259.1 0.0 0.195 48.54
2020-01-22 12:35 58.5 44.93 37.19 58.5 58.5 8.12 11.7 7.29 37.2 255.6 0.0 0.104 48.65
2020-01-22 12:40 58.42 44.59 36.93 58.42 58.42 6.71 9.91 6.64 17.0 242.3 0.0 0.187 48.76
2020-01-22 12:45 59.34 42.16 36.34 59.34 59.34 7.61 10.09 7.49 21.3 250.0 0.0 0.192 48.87
2020-01-22 12:50 59.29 41.99 36.19 59.29 59.29 8.3 9.04 7.16 20.1 251.0 0.0 0.191 49.01
2020-01-22 12:55 59.09 41.05 35.44 59.09 59.09 8.3 8.48 6.2 14.2 243.6 0.0 0.198 49.12
2020-01-22 13:00 59.47 41.79 36.23 59.47 59.47 4.92 7.78 4.94 30.1 270.0 0.0 0.19 49.23
2020-01-22 13:05 59.88 41.48 36.41 59.88 59.88 4.38 9.04 6.69 20.2 251.5 0.0 0.199 49.32
2020-01-22 13:10 59.45 41.38 35.96 59.45 59.45 5.28 9.73 7.05 20.1 253.5 0.0 0.089 49.42
2020-01-22 13:15 59.09 42.26 36.17 59.09 59.09 6.89 12.59 7.18 16.0 246.5 0.0 0.151 49.53
2020-01-22 13:20 60.12 41.41 36.58 60.12 60.12 6.71 11.7 6.87 15.8 241.4 0.0 0.194 49.68
2020-01-22 13:25 60.04 40.33 35.85 60.04 60.04 9.4 11.52 8.48 16.0 241.7 0.0 0.188 49.78
2020-01-22 13:30 60.17 40.6 36.13 60.17 60.17 5.82 9.57 6.93 15.8 243.5 0.0 0.158 49.89
2020-01-22 13:35 59.68 40.33 35.53 59.68 59.68 4.56 9.91 5.37 32.8 274.6 0.0 0.106 49.98
2020-01-22 13:40 60.91 39.45 36.07 60.91 60.91 8.12 10.63 6.38 32.7 251.9 0.0 0.16 50.13
2020-01-22 13:45 60.53 39.76 35.93 60.53 60.53 6.71 10.09 7.31 18.8 252.0 0.0 0.158 50.23
2020-01-22 13:50 60.78 40.4 36.56 60.78 60.78 3.31 9.22 5.79 16.0 245.5 0.0 0.164 50.34
2020-01-22 13:55 60.71 39.28 35.78 60.71 60.71 9.4 10.98 6.98 23.2 244.8 0.0 0.173 50.49
2020-01-22 14:00 60.48 39.95 36.0 60.48 60.48 5.82 12.77 8.3 21.7 246.9 0.0 0.157 50.59
2020-01-22 14:05 61.32 38.37 35.74 61.32 61.32 7.96 9.22 6.46 31.3 278.7 0.0 0.167 50.7
2020-01-22 14:10 60.66 39.55 35.9 60.66 60.66 7.25 10.8 7.7 24.9 256.6 0.0 0.164 50.85
2020-01-22 14:15 61.2 38.67 35.82 61.2 61.2 5.1 9.57 6.38 19.9 254.4 0.0 0.164 50.95
2020-01-22 14:20 61.86 37.73 35.79 61.86 61.86 8.86 10.09 6.33 20.6 242.4 0.0 0.176 51.06
2020-01-22 14:25 61.25 38.47 35.74 61.25 61.25 6.53 10.45 7.27 18.4 244.8 0.0 0.172 51.17
2020-01-22 14:30 62.17 37.02 35.59 62.17 62.17 10.27 10.27 5.23 36.3 238.2 0.0 0.174 51.28
2020-01-22 14:35 62.22 37.02 35.63 62.22 62.22 10.63 13.85 9.04 21.6 251.0 0.0 0.175 51.42
2020-01-22 14:40 62.04 38.5 36.46 62.04 62.04 5.46 16.53 8.63 40.2 284.5 0.0 0.17 51.53
2020-01-22 14:45 62.83 35.87 35.38 62.83 62.83 5.28 8.3 6.08 14.6 331.9 0.0 0.168 51.64
2020-01-22 14:50 62.83 35.5 35.12 62.83 62.83 5.64 7.96 3.65 44.0 306.9 0.0 0.152 51.75
2020-01-22 14:55 62.28 37.25 35.84 62.28 62.28 6.71 9.57 6.29 34.4 247.3 0.0 0.142 51.87
2020-01-22 15:00 61.99 36.48 35.06 61.99 61.99 7.78 9.57 6.29 13.1 318.7 0.0 0.081 52.0
2020-01-22 15:05 60.89 37.15 34.54 60.89 60.89 1.88 6.17 4.25 45.5 342.8 0.0 0.058 52.11
2020-01-22 15:10 61.38 38.06 35.58 61.38 61.38 5.46 10.09 5.59 29.5 340.9 0.0 0.083 52.21
2020-01-22 15:15 61.25 38.5 35.76 61.25 61.25 6.0 8.3 5.41 49.6 339.0 0.0 0.071 52.32
2020-01-22 15:20 60.89 39.28 35.94 60.89 60.89 3.85 5.82 4.52 32.1 6.2 0.0 0.027 52.43
2020-01-22 15:25 60.33 38.97 35.24 60.33 60.33 4.92 7.25 4.65 21.8 333.3 0.0 0.027 52.54
2020-01-22 15:30 61.07 38.33 35.48 61.07 61.07 4.21 10.09 4.21 27.5 331.6 0.0 0.077 52.63
2020-01-22 15:35 61.74 39.24 36.67 61.74 61.74 5.64 7.43 5.23 17.4 319.8 0.0 0.104 52.74
2020-01-22 15:40 62.1 37.39 35.77 62.1 62.1 4.21 8.12 4.34 29.5 329.7 0.0 0.105 52.81
2020-01-22 15:45 61.81 38.54 36.28 61.81 61.81 5.28 6.89 4.56 20.2 307.8 0.0 0.083 52.92
2020-01-22 15:50 61.2 36.92 34.65 61.2 61.2 5.46 9.91 5.5 19.0 319.7 0.0 0.067 52.99
2020-01-22 15:55 61.25 36.88 34.67 61.25 61.25 4.74 8.48 6.0 31.4 343.8 0.0 0.054 53.06
2020-01-22 16:00 61.02 37.08 34.6 61.02 61.02 4.03 5.46 3.76 30.1 356.1 0.0 0.051 53.11
2020-01-22 16:05 61.56 38.03 35.72 61.56 61.56 2.59 4.74 2.93 23.9 324.9 0.0 0.04 53.17
2020-01-22 16:10 60.84 38.1 35.12 60.84 60.84 2.24 5.64 3.49 25.8 267.9 0.0 0.026 53.26
2020-01-22 16:15 60.22 38.71 34.98 60.22 60.22 8.12 8.12 4.59 25.4 320.4 0.0 0.018 53.31
2020-01-22 16:20 60.06 38.71 34.83 60.06 60.06 7.43 9.22 6.29 14.8 325.1 0.0 0.022 53.37
2020-01-22 16:25 59.94 39.39 35.16 59.94 59.94 3.85 7.43 4.65 17.2 311.0 0.0 0.032 53.4
2020-01-22 16:30 60.3 39.19 35.35 60.3 60.3 3.85 6.53 4.76 14.8 306.2 0.0 0.031 53.44
2020-01-22 16:35 60.42 37.37 34.27 60.42 60.42 5.1 6.0 4.03 21.4 321.8 0.0 0.046 53.47
2020-01-22 16:40 60.8 36.59 34.08 60.8 60.8 6.17 6.53 5.15 19.5 317.7 0.0 0.053 53.51

Data is courtesy of the NM Climate Center. DO NOT USE IN LEGAL PROCEEDINGS.